createdAt,value
2022-10-19T00:03:55.246Z,9.16
2022-10-19T00:09:00.449Z,9.11
2022-10-19T00:14:05.313Z,9.02
2022-10-19T00:19:15.882Z,8.96
2022-10-19T00:24:19.679Z,9.03
2022-10-19T00:29:23.072Z,9.21
2022-10-19T00:34:28.000Z,9.38
2022-10-19T00:39:31.311Z,9.31
2022-10-19T00:45:06.130Z,9.28
2022-10-19T00:50:14.520Z,9.25
2022-10-19T00:55:18.322Z,9.16
2022-10-19T01:00:21.754Z,9.13
2022-10-19T01:05:27.740Z,9.13
2022-10-19T01:10:43.010Z,9.06
2022-10-19T01:15:54.584Z,9.08
2022-10-19T01:21:22.308Z,9.07
2022-10-19T01:26:42.994Z,9.03
2022-10-19T01:31:51.438Z,9.07
2022-10-19T01:37:02.234Z,8.97
2022-10-19T01:42:13.077Z,9.05
2022-10-19T01:47:21.731Z,9.07
2022-10-19T01:52:28.405Z,9.11
2022-10-19T01:57:35.395Z,9.18
2022-10-19T02:02:44.919Z,9.21
2022-10-19T02:07:52.578Z,9.23
2022-10-19T02:12:57.687Z,9.18
2022-10-19T02:18:26.569Z,9.21
2022-10-19T02:23:30.332Z,9.14
2022-10-19T02:28:34.543Z,9.19
2022-10-19T02:33:39.619Z,9.18
2022-10-19T02:38:43.363Z,9.22
2022-10-19T02:43:51.409Z,9.22
2022-10-19T02:48:58.495Z,9.11
2022-10-19T02:54:04.948Z,8.93
2022-10-19T02:59:08.832Z,8.78
2022-10-19T03:04:13.559Z,8.52
2022-10-19T03:09:16.990Z,8.51
2022-10-19T03:14:20.310Z,8.61
2022-10-19T03:19:25.377Z,8.75
2022-10-19T03:24:28.892Z,8.87
2022-10-19T03:29:32.356Z,8.83
2022-10-19T03:34:37.148Z,8.57
2022-10-19T03:39:40.479Z,8.48
2022-10-19T03:44:43.823Z,8.59
2022-10-19T03:49:50.355Z,8.81
2022-10-19T03:54:53.707Z,8.87
2022-10-19T03:59:57.094Z,8.90
2022-10-19T04:05:01.841Z,8.91
2022-10-19T04:10:07.015Z,8.84
2022-10-19T04:15:11.288Z,8.76
2022-10-19T04:20:16.390Z,8.74
2022-10-19T04:25:19.964Z,8.64
2022-10-19T04:30:23.370Z,8.77
2022-10-19T04:35:28.423Z,8.83
2022-10-19T04:40:31.710Z,8.82
2022-10-19T04:45:37.071Z,8.77
2022-10-19T04:50:41.801Z,8.88
2022-10-19T04:55:45.219Z,8.72
2022-10-19T05:00:49.000Z,8.71
2022-10-19T05:05:53.766Z,8.77
2022-10-19T05:11:01.406Z,8.63
2022-10-19T05:16:06.782Z,8.72
2022-10-19T05:21:14.093Z,8.63
2022-10-19T05:26:19.051Z,8.77
2022-10-19T05:31:22.472Z,8.80
2022-10-19T05:36:29.429Z,8.76
2022-10-19T05:41:33.029Z,8.67
2022-10-19T05:46:36.376Z,8.70
2022-10-19T05:51:41.662Z,8.78
2022-10-19T05:56:45.682Z,8.83
2022-10-19T06:01:49.473Z,8.79
2022-10-19T06:06:54.475Z,8.82
2022-10-19T06:11:57.793Z,8.83
2022-10-19T06:17:01.084Z,9.23
2022-10-19T06:22:05.942Z,9.48
2022-10-19T06:27:09.126Z,9.70
2022-10-19T06:32:12.769Z,9.78
2022-10-19T06:37:17.553Z,9.72
2022-10-19T06:42:20.866Z,9.76
2022-10-19T06:47:28.353Z,10.03
2022-10-19T06:52:34.002Z,9.80
2022-10-19T06:57:37.738Z,9.62
2022-10-19T07:02:41.197Z,9.59
2022-10-19T07:07:47.007Z,9.57
2022-10-19T07:12:50.419Z,9.73
2022-10-19T07:17:54.462Z,9.94
2022-10-19T07:22:59.270Z,9.89
2022-10-19T07:28:02.318Z,10.01
2022-10-19T07:33:06.901Z,10.25
2022-10-19T07:38:11.734Z,10.22
2022-10-19T07:43:15.069Z,10.17
2022-10-19T07:48:18.356Z,10.14
2022-10-19T07:53:23.187Z,10.26
2022-10-19T07:58:26.242Z,10.16
2022-10-19T08:08:55.539Z,10.19
2022-10-19T08:19:41.549Z,10.62
2022-10-19T08:24:46.448Z,10.83
2022-10-19T08:29:49.895Z,11.05
2022-10-19T08:34:53.326Z,11.16
2022-10-19T08:39:59.795Z,11.11
2022-10-19T08:45:24.658Z,11.05
2022-10-19T08:50:34.611Z,11.20
2022-10-19T08:55:51.013Z,11.12
2022-10-19T09:01:01.611Z,10.61
2022-10-19T09:06:20.572Z,10.70
2022-10-19T09:11:28.735Z,10.68
2022-10-19T09:16:32.939Z,10.58
2022-10-19T09:21:47.362Z,10.46
2022-10-19T09:26:54.807Z,10.38
2022-10-19T09:32:01.587Z,10.40
2022-10-19T09:37:05.977Z,10.40
2022-10-19T09:42:19.169Z,10.55
2022-10-19T09:47:33.900Z,10.54
2022-10-19T09:52:38.266Z,10.62
2022-10-19T09:57:45.358Z,10.57
2022-10-19T10:02:53.167Z,10.54
2022-10-19T10:07:56.988Z,10.42
2022-10-19T10:13:03.065Z,10.53
2022-10-19T10:18:06.562Z,10.65
2022-10-19T10:23:24.889Z,10.74
2022-10-19T10:28:31.283Z,10.86
2022-10-19T10:33:46.151Z,10.74
2022-10-19T10:38:53.043Z,11.22
2022-10-19T10:44:04.702Z,11.30
2022-10-19T10:49:18.204Z,11.26
2022-10-19T10:54:24.032Z,11.26
2022-10-19T10:59:33.455Z,11.31
2022-10-19T11:04:42.394Z,11.26
2022-10-19T11:09:53.125Z,11.32
2022-10-19T11:15:05.308Z,11.68
2022-10-19T11:20:16.180Z,11.71
2022-10-19T11:25:27.650Z,11.52
2022-10-19T11:30:41.588Z,11.75
2022-10-19T11:35:53.260Z,11.54
2022-10-19T11:41:22.332Z,11.41
2022-10-19T11:46:33.383Z,11.29
2022-10-19T11:51:42.284Z,11.47
2022-10-19T11:57:02.849Z,11.42
2022-10-19T12:02:31.201Z,11.67
2022-10-19T12:07:57.638Z,11.50
2022-10-19T12:13:05.290Z,11.38
2022-10-19T12:18:17.311Z,10.96
2022-10-19T12:23:29.700Z,10.84
2022-10-19T12:28:35.292Z,10.92
2022-10-19T12:33:47.506Z,11.01
2022-10-19T12:39:02.049Z,10.97
2022-10-19T12:44:22.142Z,10.90
2022-10-19T12:49:45.652Z,11.00
2022-10-19T12:54:49.128Z,10.63
2022-10-19T13:00:19.527Z,10.63
2022-10-19T13:05:27.284Z,10.54
2022-10-19T13:10:33.260Z,10.28
2022-10-19T13:15:58.469Z,10.33
2022-10-19T13:21:03.765Z,10.19
2022-10-19T13:26:31.588Z,10.25
2022-10-19T13:31:37.825Z,10.17
2022-10-19T13:37:01.006Z,10.04
2022-10-19T13:42:04.410Z,10.08
2022-10-19T13:47:32.801Z,10.16
2022-10-19T13:53:01.488Z,10.04
2022-10-19T13:58:22.789Z,9.92
2022-10-19T14:03:38.070Z,9.87
2022-10-19T14:09:31.824Z,9.76
2022-10-19T14:14:43.217Z,9.63
2022-10-19T14:19:49.203Z,9.56
2022-10-19T14:24:53.023Z,9.32
2022-10-19T14:29:58.628Z,9.32
2022-10-19T14:35:17.476Z,9.19
2022-10-19T14:40:28.133Z,9.13
2022-10-19T14:45:33.870Z,8.93
2022-10-19T14:50:44.428Z,8.86
2022-10-19T14:55:49.084Z,8.75
2022-10-19T15:00:55.618Z,8.65
2022-10-19T15:06:02.681Z,8.45
2022-10-19T15:11:08.039Z,8.43
2022-10-19T15:16:35.314Z,8.45
2022-10-19T15:21:38.680Z,8.44
2022-10-19T15:26:42.062Z,8.44
2022-10-19T15:31:46.812Z,8.55
2022-10-19T15:36:55.869Z,8.52
2022-10-19T15:42:24.225Z,8.50
2022-10-19T15:47:29.150Z,8.45
2022-10-19T15:52:34.625Z,8.40
2022-10-19T15:57:39.988Z,8.44
2022-10-19T16:02:45.121Z,8.51
2022-10-19T16:07:48.507Z,8.37
2022-10-19T16:12:52.325Z,8.29
2022-10-19T16:17:59.408Z,8.24
2022-10-19T16:23:02.796Z,8.32
2022-10-19T16:28:06.477Z,8.18
2022-10-19T16:33:11.200Z,8.14
2022-10-19T16:38:15.465Z,7.99
2022-10-19T16:43:19.068Z,8.18
2022-10-19T16:48:24.355Z,8.12
2022-10-19T16:53:29.370Z,8.15
2022-10-19T16:58:32.968Z,8.09
2022-10-19T17:03:38.163Z,8.15
2022-10-19T17:09:23.370Z,8.27
2022-10-19T17:14:08.989Z,8.23
2022-10-19T17:19:14.329Z,8.22
2022-10-19T17:24:22.126Z,8.14
2022-10-19T17:29:26.636Z,8.24
2022-10-19T17:34:34.095Z,8.26
2022-10-19T17:39:37.367Z,8.22
2022-10-19T17:44:40.869Z,8.09
2022-10-19T17:49:46.609Z,8.01
2022-10-19T17:55:11.251Z,7.92
2022-10-19T18:00:14.579Z,7.89
2022-10-19T18:05:19.577Z,7.95
2022-10-19T18:10:22.633Z,7.87
2022-10-19T18:15:26.128Z,7.99
2022-10-19T18:20:30.908Z,8.08
2022-10-19T18:25:53.323Z,8.05
2022-10-19T18:30:57.422Z,8.00
2022-10-19T18:36:02.236Z,7.93
2022-10-19T18:41:07.078Z,7.93
2022-10-19T18:46:11.904Z,8.06
2022-10-19T18:51:17.532Z,8.01
2022-10-19T18:56:23.142Z,7.97
2022-10-19T19:01:28.236Z,7.86
2022-10-19T19:06:35.485Z,7.82
2022-10-19T19:11:42.073Z,7.81
2022-10-19T19:16:46.683Z,7.92
2022-10-19T19:21:51.722Z,7.92
2022-10-19T19:26:55.692Z,7.90
2022-10-19T19:31:59.069Z,7.96
2022-10-19T19:37:07.331Z,8.00
2022-10-19T19:42:13.735Z,8.10
2022-10-19T19:47:19.432Z,7.98
2022-10-19T19:52:24.242Z,8.13
2022-10-19T19:57:27.339Z,8.00
2022-10-19T20:02:33.103Z,7.97
2022-10-19T20:07:38.197Z,7.90
2022-10-19T20:12:41.697Z,7.87
2022-10-19T20:17:45.436Z,7.97
2022-10-19T20:22:50.772Z,7.96
2022-10-19T20:27:54.214Z,8.01
2022-10-19T20:32:58.826Z,7.86
2022-10-19T20:38:04.348Z,7.92
2022-10-19T20:43:07.696Z,7.90
2022-10-19T20:48:11.171Z,7.83
2022-10-19T20:53:15.931Z,7.89
2022-10-19T20:58:19.049Z,8.04
2022-10-19T21:03:23.944Z,7.86
2022-10-19T21:08:28.798Z,8.02
2022-10-19T21:13:32.361Z,8.03
2022-10-19T21:18:35.733Z,8.00
2022-10-19T21:23:40.486Z,8.00
2022-10-19T21:28:48.016Z,8.03
2022-10-19T21:33:52.110Z,8.02
2022-10-19T21:38:57.689Z,8.02
2022-10-19T21:44:01.412Z,7.99
2022-10-19T21:49:05.630Z,7.96
2022-10-19T21:54:13.995Z,7.88
2022-10-19T21:59:17.979Z,7.77
2022-10-19T22:04:23.245Z,7.77
2022-10-19T22:09:28.749Z,7.74
2022-10-19T22:14:32.092Z,7.41
2022-10-19T22:19:35.397Z,7.38
2022-10-19T22:24:40.407Z,7.47
2022-10-19T22:29:43.925Z,7.42
2022-10-19T22:34:47.509Z,7.36
2022-10-19T22:39:53.009Z,7.38
2022-10-19T22:44:56.362Z,7.31
2022-10-19T22:50:00.556Z,7.31
2022-10-19T22:55:05.762Z,7.42
2022-10-19T23:00:10.458Z,7.33
2022-10-19T23:05:13.749Z,7.21
2022-10-19T23:10:18.925Z,7.21
2022-10-19T23:15:22.990Z,7.17
2022-10-19T23:20:26.402Z,7.13
2022-10-19T23:30:35.461Z,7.11
2022-10-19T23:35:38.894Z,7.07
2022-10-19T23:40:44.141Z,7.10
2022-10-19T23:45:47.459Z,7.09
2022-10-19T23:50:58.328Z,7.20
2022-10-19T23:56:03.800Z,7.04
